sensor_id;sensor_type;location;lat;lon;timestamp;temperature;humidity
27540;DHT22;15906;52.046;4.724;2024-03-29T00:00:55;9.90;99.90
27540;DHT22;15906;52.046;4.724;2024-03-29T00:03:21;9.90;99.90
27540;DHT22;15906;52.046;4.724;2024-03-29T00:05:46;10.00;99.90
27540;DHT22;15906;52.046;4.724;2024-03-29T00:08:12;10.00;99.90
27540;DHT22;15906;52.046;4.724;2024-03-29T00:10:38;10.00;99.90
27540;DHT22;15906;52.046;4.724;2024-03-29T00:13:04;9.90;99.90
27540;DHT22;15906;52.046;4.724;2024-03-29T00:15:31;9.90;99.90
27540;DHT22;15906;52.046;4.724;2024-03-29T00:17:57;9.80;99.90
27540;DHT22;15906;52.046;4.724;2024-03-29T00:20:23;9.90;99.90
27540;DHT22;15906;52.046;4.724;2024-03-29T00:22:49;9.80;99.90
27540;DHT22;15906;52.046;4.724;2024-03-29T00:25:14;9.80;99.90
27540;DHT22;15906;52.046;4.724;2024-03-29T00:27:40;9.80;99.90
27540;DHT22;15906;52.046;4.724;2024-03-29T00:30:06;9.90;99.90
27540;DHT22;15906;52.046;4.724;2024-03-29T00:32:31;9.80;99.90
27540;DHT22;15906;52.046;4.724;2024-03-29T00:34:57;9.80;99.90
27540;DHT22;15906;52.046;4.724;2024-03-29T00:37:23;9.80;99.90
27540;DHT22;15906;52.046;4.724;2024-03-29T00:39:49;9.70;99.90
27540;DHT22;15906;52.046;4.724;2024-03-29T00:42:15;9.80;99.90
27540;DHT22;15906;52.046;4.724;2024-03-29T00:44:43;9.70;99.90
27540;DHT22;15906;52.046;4.724;2024-03-29T00:47:09;9.70;99.90
27540;DHT22;15906;52.046;4.724;2024-03-29T00:49:35;9.60;99.90
27540;DHT22;15906;52.046;4.724;2024-03-29T00:52:02;9.60;99.90
27540;DHT22;15906;52.046;4.724;2024-03-29T00:54:28;9.60;99.90
27540;DHT22;15906;52.046;4.724;2024-03-29T00:56:53;9.60;99.90
27540;DHT22;15906;52.046;4.724;2024-03-29T00:59:19;9.60;99.90
27540;DHT22;15906;52.046;4.724;2024-03-29T01:01:45;9.60;99.90
27540;DHT22;15906;52.046;4.724;2024-03-29T01:04:11;9.60;99.90
27540;DHT22;15906;52.046;4.724;2024-03-29T01:06:37;9.60;99.90
27540;DHT22;15906;52.046;4.724;2024-03-29T01:09:03;9.60;99.90
27540;DHT22;15906;52.046;4.724;2024-03-29T01:11:30;9.60;99.90
27540;DHT22;15906;52.046;4.724;2024-03-29T01:13:55;9.60;99.90
27540;DHT22;15906;52.046;4.724;2024-03-29T01:16:21;9.70;99.90
27540;DHT22;15906;52.046;4.724;2024-03-29T01:18:47;9.70;99.90
27540;DHT22;15906;52.046;4.724;2024-03-29T01:21:13;9.70;99.90
27540;DHT22;15906;52.046;4.724;2024-03-29T01:23:38;9.70;99.90
27540;DHT22;15906;52.046;4.724;2024-03-29T01:26:05;9.70;99.90
27540;DHT22;15906;52.046;4.724;2024-03-29T01:28:31;9.80;99.90
27540;DHT22;15906;52.046;4.724;2024-03-29T01:30:57;9.80;99.90
27540;DHT22;15906;52.046;4.724;2024-03-29T01:33:24;9.80;99.90
27540;DHT22;15906;52.046;4.724;2024-03-29T01:35:49;9.80;99.90
27540;DHT22;15906;52.046;4.724;2024-03-29T01:38:15;9.80;99.90
27540;DHT22;15906;52.046;4.724;2024-03-29T01:40:41;9.90;99.90
27540;DHT22;15906;52.046;4.724;2024-03-29T01:43:07;9.90;99.90
27540;DHT22;15906;52.046;4.724;2024-03-29T01:45:35;9.90;99.90
27540;DHT22;15906;52.046;4.724;2024-03-29T01:48:03;9.90;99.90
27540;DHT22;15906;52.046;4.724;2024-03-29T01:50:29;9.80;99.90
27540;DHT22;15906;52.046;4.724;2024-03-29T01:52:55;9.80;99.90
27540;DHT22;15906;52.046;4.724;2024-03-29T01:55:21;9.80;99.90
27540;DHT22;15906;52.046;4.724;2024-03-29T01:57:46;9.80;99.90
27540;DHT22;15906;52.046;4.724;2024-03-29T02:00:12;9.80;99.90
27540;DHT22;15906;52.046;4.724;2024-03-29T02:02:38;9.90;99.90
27540;DHT22;15906;52.046;4.724;2024-03-29T02:05:03;9.80;99.90
27540;DHT22;15906;52.046;4.724;2024-03-29T02:07:30;9.80;99.90
27540;DHT22;15906;52.046;4.724;2024-03-29T02:09:55;9.80;99.90
27540;DHT22;15906;52.046;4.724;2024-03-29T02:12:21;9.80;99.90
27540;DHT22;15906;52.046;4.724;2024-03-29T02:14:47;9.80;99.90
27540;DHT22;15906;52.046;4.724;2024-03-29T02:17:12;9.70;99.90
27540;DHT22;15906;52.046;4.724;2024-03-29T02:19:38;9.70;99.90
27540;DHT22;15906;52.046;4.724;2024-03-29T02:22:03;9.60;99.90
27540;DHT22;15906;52.046;4.724;2024-03-29T02:24:31;9.60;99.90
27540;DHT22;15906;52.046;4.724;2024-03-29T02:26:57;9.50;99.90
27540;DHT22;15906;52.046;4.724;2024-03-29T02:29:23;9.40;99.90
27540;DHT22;15906;52.046;4.724;2024-03-29T02:31:50;9.40;99.90
27540;DHT22;15906;52.046;4.724;2024-03-29T02:34:15;9.30;99.90
27540;DHT22;15906;52.046;4.724;2024-03-29T02:36:41;9.30;99.90
27540;DHT22;15906;52.046;4.724;2024-03-29T02:39:09;9.20;99.90
27540;DHT22;15906;52.046;4.724;2024-03-29T02:41:34;9.30;99.90
27540;DHT22;15906;52.046;4.724;2024-03-29T02:44:00;9.20;99.90
27540;DHT22;15906;52.046;4.724;2024-03-29T02:46:25;9.20;99.90
27540;DHT22;15906;52.046;4.724;2024-03-29T02:48:51;9.20;99.90
27540;DHT22;15906;52.046;4.724;2024-03-29T02:51:17;9.20;99.90
27540;DHT22;15906;52.046;4.724;2024-03-29T02:53:42;9.20;99.90
27540;DHT22;15906;52.046;4.724;2024-03-29T02:56:08;9.20;99.90
27540;DHT22;15906;52.046;4.724;2024-03-29T02:58:36;9.30;99.90
27540;DHT22;15906;52.046;4.724;2024-03-29T03:01:08;9.30;99.90
27540;DHT22;15906;52.046;4.724;2024-03-29T03:03:35;9.40;99.90
27540;DHT22;15906;52.046;4.724;2024-03-29T03:06:00;9.50;99.90
27540;DHT22;15906;52.046;4.724;2024-03-29T03:08:26;9.60;99.90
27540;DHT22;15906;52.046;4.724;2024-03-29T03:11:10;9.60;99.90
27540;DHT22;15906;52.046;4.724;2024-03-29T03:13:36;9.70;99.90
27540;DHT22;15906;52.046;4.724;2024-03-29T03:16:01;9.70;99.90
27540;DHT22;15906;52.046;4.724;2024-03-29T03:18:27;9.80;99.90
27540;DHT22;15906;52.046;4.724;2024-03-29T03:20:53;9.80;99.90
27540;DHT22;15906;52.046;4.724;2024-03-29T03:23:19;9.80;99.90
27540;DHT22;15906;52.046;4.724;2024-03-29T03:25:58;9.80;99.90
27540;DHT22;15906;52.046;4.724;2024-03-29T03:28:24;9.80;99.90
27540;DHT22;15906;52.046;4.724;2024-03-29T03:30:51;9.80;99.90
27540;DHT22;15906;52.046;4.724;2024-03-29T03:33:17;9.90;99.90
27540;DHT22;15906;52.046;4.724;2024-03-29T03:35:43;9.90;99.90
27540;DHT22;15906;52.046;4.724;2024-03-29T03:38:09;9.90;99.90
27540;DHT22;15906;52.046;4.724;2024-03-29T03:40:35;9.90;99.90
27540;DHT22;15906;52.046;4.724;2024-03-29T03:43:02;9.90;99.90
27540;DHT22;15906;52.046;4.724;2024-03-29T03:45:27;10.00;99.90
27540;DHT22;15906;52.046;4.724;2024-03-29T03:47:53;10.00;99.90
27540;DHT22;15906;52.046;4.724;2024-03-29T03:50:18;9.90;99.90
27540;DHT22;15906;52.046;4.724;2024-03-29T03:52:44;9.90;99.90
27540;DHT22;15906;52.046;4.724;2024-03-29T03:55:09;9.90;99.90
27540;DHT22;15906;52.046;4.724;2024-03-29T03:57:35;9.90;99.90
27540;DHT22;15906;52.046;4.724;2024-03-29T04:00:01;9.90;99.90
27540;DHT22;15906;52.046;4.724;2024-03-29T04:02:27;9.90;99.90
27540;DHT22;15906;52.046;4.724;2024-03-29T04:04:53;9.90;99.90
27540;DHT22;15906;52.046;4.724;2024-03-29T04:07:18;10.00;99.90
27540;DHT22;15906;52.046;4.724;2024-03-29T04:09:44;10.00;99.90
27540;DHT22;15906;52.046;4.724;2024-03-29T04:12:09;10.00;99.90
27540;DHT22;15906;52.046;4.724;2024-03-29T04:14:35;10.00;99.90
27540;DHT22;15906;52.046;4.724;2024-03-29T04:17:00;9.90;99.90
27540;DHT22;15906;52.046;4.724;2024-03-29T04:19:26;9.90;99.90
27540;DHT22;15906;52.046;4.724;2024-03-29T04:21:52;9.90;99.90
27540;DHT22;15906;52.046;4.724;2024-03-29T04:24:18;9.80;99.90
27540;DHT22;15906;52.046;4.724;2024-03-29T04:26:43;9.90;99.90
27540;DHT22;15906;52.046;4.724;2024-03-29T04:29:10;9.90;99.90
27540;DHT22;15906;52.046;4.724;2024-03-29T04:31:35;9.90;99.90
27540;DHT22;15906;52.046;4.724;2024-03-29T04:34:01;9.90;99.90
27540;DHT22;15906;52.046;4.724;2024-03-29T04:36:26;9.90;99.90
27540;DHT22;15906;52.046;4.724;2024-03-29T04:38:52;9.80;99.90
27540;DHT22;15906;52.046;4.724;2024-03-29T04:41:19;9.80;99.90
27540;DHT22;15906;52.046;4.724;2024-03-29T04:43:44;9.70;99.90
27540;DHT22;15906;52.046;4.724;2024-03-29T04:46:14;9.70;99.90
27540;DHT22;15906;52.046;4.724;2024-03-29T04:48:43;9.70;99.90
27540;DHT22;15906;52.046;4.724;2024-03-29T04:51:09;9.70;99.90
27540;DHT22;15906;52.046;4.724;2024-03-29T04:53:39;9.60;99.90
27540;DHT22;15906;52.046;4.724;2024-03-29T04:56:05;9.60;99.90
27540;DHT22;15906;52.046;4.724;2024-03-29T04:58:31;9.60;99.90
27540;DHT22;15906;52.046;4.724;2024-03-29T05:00:57;9.50;99.90
27540;DHT22;15906;52.046;4.724;2024-03-29T05:03:23;9.60;99.90
27540;DHT22;15906;52.046;4.724;2024-03-29T05:05:52;9.50;99.90
27540;DHT22;15906;52.046;4.724;2024-03-29T05:08:18;9.50;99.90
27540;DHT22;15906;52.046;4.724;2024-03-29T05:10:45;9.50;99.90
27540;DHT22;15906;52.046;4.724;2024-03-29T05:13:11;9.40;99.90
27540;DHT22;15906;52.046;4.724;2024-03-29T05:15:37;9.40;99.90
27540;DHT22;15906;52.046;4.724;2024-03-29T05:18:02;9.30;99.90
27540;DHT22;15906;52.046;4.724;2024-03-29T05:20:29;9.30;99.90
27540;DHT22;15906;52.046;4.724;2024-03-29T05:22:54;9.20;99.90
27540;DHT22;15906;52.046;4.724;2024-03-29T05:25:20;9.20;99.90
27540;DHT22;15906;52.046;4.724;2024-03-29T05:27:45;9.10;99.90
27540;DHT22;15906;52.046;4.724;2024-03-29T05:30:11;9.00;99.90
27540;DHT22;15906;52.046;4.724;2024-03-29T05:32:37;8.90;99.90
27540;DHT22;15906;52.046;4.724;2024-03-29T05:35:02;8.90;99.90
27540;DHT22;15906;52.046;4.724;2024-03-29T05:37:28;8.80;99.90
27540;DHT22;15906;52.046;4.724;2024-03-29T05:39:54;8.80;99.90
27540;DHT22;15906;52.046;4.724;2024-03-29T05:42:27;8.80;99.90
27540;DHT22;15906;52.046;4.724;2024-03-29T05:44:53;8.80;99.90
27540;DHT22;15906;52.046;4.724;2024-03-29T05:47:19;8.70;99.90
27540;DHT22;15906;52.046;4.724;2024-03-29T05:49:45;8.60;99.90
27540;DHT22;15906;52.046;4.724;2024-03-29T05:52:10;8.50;99.90
27540;DHT22;15906;52.046;4.724;2024-03-29T05:54:42;8.50;99.90
27540;DHT22;15906;52.046;4.724;2024-03-29T05:57:08;8.50;99.90
27540;DHT22;15906;52.046;4.724;2024-03-29T05:59:34;8.40;99.90
27540;DHT22;15906;52.046;4.724;2024-03-29T06:02:00;8.40;99.90
27540;DHT22;15906;52.046;4.724;2024-03-29T06:04:25;8.40;99.90
27540;DHT22;15906;52.046;4.724;2024-03-29T06:07:04;8.30;99.90
27540;DHT22;15906;52.046;4.724;2024-03-29T06:09:31;8.40;99.90
27540;DHT22;15906;52.046;4.724;2024-03-29T06:12:00;8.30;99.90
27540;DHT22;15906;52.046;4.724;2024-03-29T06:14:26;8.30;99.90
27540;DHT22;15906;52.046;4.724;2024-03-29T06:17:10;8.40;99.90
27540;DHT22;15906;52.046;4.724;2024-03-29T06:19:48;8.40;99.90
27540;DHT22;15906;52.046;4.724;2024-03-29T06:22:13;8.40;99.90
27540;DHT22;15906;52.046;4.724;2024-03-29T06:24:39;8.40;99.90
27540;DHT22;15906;52.046;4.724;2024-03-29T06:27:05;8.30;99.90
27540;DHT22;15906;52.046;4.724;2024-03-29T06:29:31;8.30;99.90
27540;DHT22;15906;52.046;4.724;2024-03-29T06:31:57;8.30;99.90
27540;DHT22;15906;52.046;4.724;2024-03-29T06:34:22;8.40;99.90
27540;DHT22;15906;52.046;4.724;2024-03-29T06:36:48;8.30;99.90
27540;DHT22;15906;52.046;4.724;2024-03-29T06:39:13;8.30;99.90
27540;DHT22;15906;52.046;4.724;2024-03-29T06:41:39;8.30;99.90
27540;DHT22;15906;52.046;4.724;2024-03-29T06:44:04;8.40;99.90
27540;DHT22;15906;52.046;4.724;2024-03-29T06:46:30;8.30;99.90
27540;DHT22;15906;52.046;4.724;2024-03-29T06:48:57;8.30;99.90
27540;DHT22;15906;52.046;4.724;2024-03-29T06:51:22;8.30;99.90
27540;DHT22;15906;52.046;4.724;2024-03-29T06:53:48;8.40;99.90
27540;DHT22;15906;52.046;4.724;2024-03-29T06:56:13;8.40;99.90
27540;DHT22;15906;52.046;4.724;2024-03-29T06:58:41;8.40;99.90
27540;DHT22;15906;52.046;4.724;2024-03-29T07:01:06;8.50;99.90
27540;DHT22;15906;52.046;4.724;2024-03-29T07:03:32;8.50;99.90
27540;DHT22;15906;52.046;4.724;2024-03-29T07:05:58;8.50;99.90
27540;DHT22;15906;52.046;4.724;2024-03-29T07:08:23;8.50;99.90
27540;DHT22;15906;52.046;4.724;2024-03-29T07:10:57;8.60;99.90
27540;DHT22;15906;52.046;4.724;2024-03-29T07:13:23;8.70;99.90
27540;DHT22;15906;52.046;4.724;2024-03-29T07:15:52;8.60;99.90
27540;DHT22;15906;52.046;4.724;2024-03-29T07:18:17;8.60;99.90
27540;DHT22;15906;52.046;4.724;2024-03-29T07:20:43;8.60;99.90
27540;DHT22;15906;52.046;4.724;2024-03-29T07:23:09;8.70;99.90
27540;DHT22;15906;52.046;4.724;2024-03-29T07:25:37;8.70;99.90
27540;DHT22;15906;52.046;4.724;2024-03-29T07:28:02;8.80;99.90
27540;DHT22;15906;52.046;4.724;2024-03-29T07:30:28;8.80;99.90
27540;DHT22;15906;52.046;4.724;2024-03-29T07:32:53;8.80;99.90
27540;DHT22;15906;52.046;4.724;2024-03-29T07:35:19;8.90;99.90
27540;DHT22;15906;52.046;4.724;2024-03-29T07:37:45;8.80;99.90
27540;DHT22;15906;52.046;4.724;2024-03-29T07:40:16;8.80;99.90
27540;DHT22;15906;52.046;4.724;2024-03-29T07:42:41;8.80;99.90
27540;DHT22;15906;52.046;4.724;2024-03-29T07:45:07;8.90;99.90
27540;DHT22;15906;52.046;4.724;2024-03-29T07:47:33;9.00;99.90
27540;DHT22;15906;52.046;4.724;2024-03-29T07:49:58;9.10;99.90
27540;DHT22;15906;52.046;4.724;2024-03-29T07:52:24;9.40;99.90
27540;DHT22;15906;52.046;4.724;2024-03-29T07:54:50;9.50;99.90
27540;DHT22;15906;52.046;4.724;2024-03-29T07:57:16;9.70;99.90
27540;DHT22;15906;52.046;4.724;2024-03-29T07:59:42;9.80;99.90
27540;DHT22;15906;52.046;4.724;2024-03-29T08:02:08;10.10;99.90
27540;DHT22;15906;52.046;4.724;2024-03-29T08:04:34;10.00;99.90
27540;DHT22;15906;52.046;4.724;2024-03-29T08:06:59;10.00;99.90
27540;DHT22;15906;52.046;4.724;2024-03-29T08:09:25;10.10;99.90
27540;DHT22;15906;52.046;4.724;2024-03-29T08:11:51;10.20;99.90
27540;DHT22;15906;52.046;4.724;2024-03-29T08:14:16;10.30;99.90
27540;DHT22;15906;52.046;4.724;2024-03-29T08:16:42;10.40;99.90
27540;DHT22;15906;52.046;4.724;2024-03-29T08:19:08;10.60;99.90
27540;DHT22;15906;52.046;4.724;2024-03-29T08:21:34;10.80;99.90
27540;DHT22;15906;52.046;4.724;2024-03-29T08:23:59;10.80;99.90
27540;DHT22;15906;52.046;4.724;2024-03-29T08:26:26;10.60;99.90
27540;DHT22;15906;52.046;4.724;2024-03-29T08:28:54;10.60;99.90
27540;DHT22;15906;52.046;4.724;2024-03-29T08:31:19;10.40;99.90
27540;DHT22;15906;52.046;4.724;2024-03-29T08:33:45;10.30;99.90
27540;DHT22;15906;52.046;4.724;2024-03-29T08:36:10;10.30;99.90
27540;DHT22;15906;52.046;4.724;2024-03-29T08:38:37;10.40;99.90
27540;DHT22;15906;52.046;4.724;2024-03-29T08:41:03;10.30;99.90
27540;DHT22;15906;52.046;4.724;2024-03-29T08:43:28;10.20;99.90
27540;DHT22;15906;52.046;4.724;2024-03-29T08:45:54;10.30;99.90
27540;DHT22;15906;52.046;4.724;2024-03-29T08:48:20;10.30;99.90
27540;DHT22;15906;52.046;4.724;2024-03-29T08:50:45;10.30;99.90
27540;DHT22;15906;52.046;4.724;2024-03-29T08:53:11;10.50;99.90
27540;DHT22;15906;52.046;4.724;2024-03-29T08:55:37;10.60;99.90
27540;DHT22;15906;52.046;4.724;2024-03-29T08:58:04;10.80;99.90
27540;DHT22;15906;52.046;4.724;2024-03-29T09:00:30;11.00;99.90
27540;DHT22;15906;52.046;4.724;2024-03-29T09:02:56;11.10;99.90
27540;DHT22;15906;52.046;4.724;2024-03-29T09:05:22;11.40;99.90
27540;DHT22;15906;52.046;4.724;2024-03-29T09:07:48;11.50;99.90
27540;DHT22;15906;52.046;4.724;2024-03-29T09:10:14;11.70;99.90
27540;DHT22;15906;52.046;4.724;2024-03-29T09:12:40;11.80;99.90
27540;DHT22;15906;52.046;4.724;2024-03-29T09:15:06;11.90;99.90
27540;DHT22;15906;52.046;4.724;2024-03-29T09:17:36;11.80;99.90
27540;DHT22;15906;52.046;4.724;2024-03-29T09:20:01;11.90;99.90
27540;DHT22;15906;52.046;4.724;2024-03-29T09:22:27;11.90;99.90
27540;DHT22;15906;52.046;4.724;2024-03-29T09:24:52;11.80;99.90
27540;DHT22;15906;52.046;4.724;2024-03-29T09:27:18;11.70;99.90
27540;DHT22;15906;52.046;4.724;2024-03-29T09:29:48;11.70;99.90
27540;DHT22;15906;52.046;4.724;2024-03-29T09:32:14;11.60;99.90
27540;DHT22;15906;52.046;4.724;2024-03-29T09:34:43;11.60;99.90
27540;DHT22;15906;52.046;4.724;2024-03-29T09:37:08;11.50;99.90
27540;DHT22;15906;52.046;4.724;2024-03-29T09:39:34;11.50;99.90
27540;DHT22;15906;52.046;4.724;2024-03-29T09:42:02;11.40;99.90
27540;DHT22;15906;52.046;4.724;2024-03-29T09:44:32;11.60;99.90
27540;DHT22;15906;52.046;4.724;2024-03-29T09:47:03;11.60;99.90
27540;DHT22;15906;52.046;4.724;2024-03-29T09:49:32;11.70;99.90
27540;DHT22;15906;52.046;4.724;2024-03-29T09:52:01;11.90;99.90
27540;DHT22;15906;52.046;4.724;2024-03-29T09:54:29;12.00;99.90
27540;DHT22;15906;52.046;4.724;2024-03-29T09:56:56;12.10;99.90
27540;DHT22;15906;52.046;4.724;2024-03-29T09:59:23;12.30;99.90
27540;DHT22;15906;52.046;4.724;2024-03-29T10:01:50;12.40;99.90
27540;DHT22;15906;52.046;4.724;2024-03-29T10:04:16;12.40;99.90
27540;DHT22;15906;52.046;4.724;2024-03-29T10:06:44;12.60;99.90
27540;DHT22;15906;52.046;4.724;2024-03-29T10:09:11;12.70;99.90
27540;DHT22;15906;52.046;4.724;2024-03-29T10:11:36;12.60;99.90
27540;DHT22;15906;52.046;4.724;2024-03-29T10:14:02;12.70;99.90
27540;DHT22;15906;52.046;4.724;2024-03-29T10:16:30;12.70;99.90
27540;DHT22;15906;52.046;4.724;2024-03-29T10:18:58;12.60;99.90
27540;DHT22;15906;52.046;4.724;2024-03-29T10:21:27;12.70;99.90
27540;DHT22;15906;52.046;4.724;2024-03-29T10:23:53;12.90;99.90
27540;DHT22;15906;52.046;4.724;2024-03-29T10:26:19;12.50;99.90
27540;DHT22;15906;52.046;4.724;2024-03-29T10:28:46;12.50;99.90
27540;DHT22;15906;52.046;4.724;2024-03-29T10:31:12;12.60;99.90
27540;DHT22;15906;52.046;4.724;2024-03-29T10:33:41;12.70;99.90
27540;DHT22;15906;52.046;4.724;2024-03-29T10:36:07;12.80;99.90
27540;DHT22;15906;52.046;4.724;2024-03-29T10:38:35;13.00;99.90
27540;DHT22;15906;52.046;4.724;2024-03-29T10:41:01;13.10;99.90
27540;DHT22;15906;52.046;4.724;2024-03-29T10:43:29;13.50;99.90
27540;DHT22;15906;52.046;4.724;2024-03-29T10:45:55;13.40;99.90
27540;DHT22;15906;52.046;4.724;2024-03-29T10:48:26;13.30;99.90
27540;DHT22;15906;52.046;4.724;2024-03-29T10:50:56;13.40;99.90
27540;DHT22;15906;52.046;4.724;2024-03-29T10:53:23;13.40;99.90
27540;DHT22;15906;52.046;4.724;2024-03-29T10:55:57;13.50;99.90
27540;DHT22;15906;52.046;4.724;2024-03-29T10:58:28;13.50;99.90
27540;DHT22;15906;52.046;4.724;2024-03-29T11:00:57;13.50;99.90
27540;DHT22;15906;52.046;4.724;2024-03-29T11:03:32;13.20;99.90
27540;DHT22;15906;52.046;4.724;2024-03-29T11:06:03;13.20;99.90
27540;DHT22;15906;52.046;4.724;2024-03-29T11:08:32;13.20;99.90
27540;DHT22;15906;52.046;4.724;2024-03-29T11:11:02;12.90;99.90
27540;DHT22;15906;52.046;4.724;2024-03-29T11:13:53;12.90;99.90
27540;DHT22;15906;52.046;4.724;2024-03-29T11:16:20;13.00;99.90
27540;DHT22;15906;52.046;4.724;2024-03-29T11:18:46;13.10;99.90
27540;DHT22;15906;52.046;4.724;2024-03-29T11:21:15;13.40;99.90
27540;DHT22;15906;52.046;4.724;2024-03-29T11:23:48;13.40;99.90
27540;DHT22;15906;52.046;4.724;2024-03-29T11:26:15;13.60;99.90
27540;DHT22;15906;52.046;4.724;2024-03-29T11:28:41;13.60;99.90
27540;DHT22;15906;52.046;4.724;2024-03-29T11:31:14;13.80;99.90
27540;DHT22;15906;52.046;4.724;2024-03-29T11:36:23;14.10;99.90
27540;DHT22;15906;52.046;4.724;2024-03-29T11:38:55;14.30;99.90
27540;DHT22;15906;52.046;4.724;2024-03-29T11:41:26;14.70;99.90
27540;DHT22;15906;52.046;4.724;2024-03-29T11:43:53;15.00;99.90
27540;DHT22;15906;52.046;4.724;2024-03-29T11:46:20;15.10;99.90
27540;DHT22;15906;52.046;4.724;2024-03-29T11:48:46;15.10;99.90
27540;DHT22;15906;52.046;4.724;2024-03-29T11:51:17;15.30;99.90
27540;DHT22;15906;52.046;4.724;2024-03-29T11:53:44;15.60;99.90
27540;DHT22;15906;52.046;4.724;2024-03-29T11:56:10;15.50;99.90
27540;DHT22;15906;52.046;4.724;2024-03-29T11:58:41;15.80;99.90
27540;DHT22;15906;52.046;4.724;2024-03-29T12:01:07;15.80;98.90
27540;DHT22;15906;52.046;4.724;2024-03-29T12:03:38;15.70;98.50
27540;DHT22;15906;52.046;4.724;2024-03-29T12:06:05;15.40;98.90
27540;DHT22;15906;52.046;4.724;2024-03-29T12:08:33;15.50;99.70
27540;DHT22;15906;52.046;4.724;2024-03-29T12:11:00;15.50;98.90
27540;DHT22;15906;52.046;4.724;2024-03-29T12:13:26;15.40;99.50
27540;DHT22;15906;52.046;4.724;2024-03-29T12:15:52;15.30;99.50
27540;DHT22;15906;52.046;4.724;2024-03-29T12:18:23;14.90;99.40
27540;DHT22;15906;52.046;4.724;2024-03-29T12:20:50;14.50;99.90
27540;DHT22;15906;52.046;4.724;2024-03-29T12:23:17;14.50;99.90
27540;DHT22;15906;52.046;4.724;2024-03-29T12:25:43;14.60;99.90
27540;DHT22;15906;52.046;4.724;2024-03-29T12:28:10;14.80;99.90
27540;DHT22;15906;52.046;4.724;2024-03-29T12:30:36;14.70;99.90
27540;DHT22;15906;52.046;4.724;2024-03-29T12:35:32;14.70;99.90
27540;DHT22;15906;52.046;4.724;2024-03-29T12:38:02;14.90;99.90
27540;DHT22;15906;52.046;4.724;2024-03-29T12:40:29;15.00;99.90
27540;DHT22;15906;52.046;4.724;2024-03-29T12:43:02;15.20;99.90
27540;DHT22;15906;52.046;4.724;2024-03-29T12:45:29;15.20;99.90
27540;DHT22;15906;52.046;4.724;2024-03-29T12:47:54;15.50;99.90
27540;DHT22;15906;52.046;4.724;2024-03-29T12:50:25;15.50;99.90
27540;DHT22;15906;52.046;4.724;2024-03-29T12:52:54;15.60;99.70
27540;DHT22;15906;52.046;4.724;2024-03-29T12:55:20;15.50;99.90
27540;DHT22;15906;52.046;4.724;2024-03-29T12:57:46;15.60;99.90
27540;DHT22;15906;52.046;4.724;2024-03-29T13:00:12;15.80;99.70
27540;DHT22;15906;52.046;4.724;2024-03-29T13:02:38;15.40;99.90
27540;DHT22;15906;52.046;4.724;2024-03-29T13:05:06;15.40;99.90
27540;DHT22;15906;52.046;4.724;2024-03-29T13:07:33;15.40;99.00
27540;DHT22;15906;52.046;4.724;2024-03-29T13:10:02;15.30;98.30
27540;DHT22;15906;52.046;4.724;2024-03-29T13:12:31;15.20;99.20
27540;DHT22;15906;52.046;4.724;2024-03-29T13:14:56;15.10;99.30
27540;DHT22;15906;52.046;4.724;2024-03-29T13:17:22;15.30;99.80
27540;DHT22;15906;52.046;4.724;2024-03-29T13:19:47;15.40;97.60
27540;DHT22;15906;52.046;4.724;2024-03-29T13:22:13;15.60;97.90
27540;DHT22;15906;52.046;4.724;2024-03-29T13:24:38;15.90;98.80
27540;DHT22;15906;52.046;4.724;2024-03-29T13:27:04;15.80;98.20
27540;DHT22;15906;52.046;4.724;2024-03-29T13:29:30;15.40;97.80
27540;DHT22;15906;52.046;4.724;2024-03-29T13:31:55;15.30;97.70
27540;DHT22;15906;52.046;4.724;2024-03-29T13:34:22;15.30;98.40
27540;DHT22;15906;52.046;4.724;2024-03-29T13:36:47;15.40;98.10
27540;DHT22;15906;52.046;4.724;2024-03-29T13:39:13;15.60;98.90
27540;DHT22;15906;52.046;4.724;2024-03-29T13:41:40;15.50;97.60
27540;DHT22;15906;52.046;4.724;2024-03-29T13:44:06;15.30;96.90
27540;DHT22;15906;52.046;4.724;2024-03-29T13:46:35;15.30;98.30
27540;DHT22;15906;52.046;4.724;2024-03-29T13:49:02;15.20;97.10
27540;DHT22;15906;52.046;4.724;2024-03-29T13:51:28;15.10;97.60
27540;DHT22;15906;52.046;4.724;2024-03-29T13:53:54;15.20;97.80
27540;DHT22;15906;52.046;4.724;2024-03-29T13:56:20;15.10;97.70
27540;DHT22;15906;52.046;4.724;2024-03-29T13:58:46;15.00;98.40
27540;DHT22;15906;52.046;4.724;2024-03-29T14:01:12;15.10;99.00
27540;DHT22;15906;52.046;4.724;2024-03-29T14:03:38;15.00;98.40
27540;DHT22;15906;52.046;4.724;2024-03-29T14:06:03;15.10;98.80
27540;DHT22;15906;52.046;4.724;2024-03-29T14:08:30;15.10;98.00
27540;DHT22;15906;52.046;4.724;2024-03-29T14:10:57;15.10;99.00
27540;DHT22;15906;52.046;4.724;2024-03-29T14:13:22;14.90;98.50
27540;DHT22;15906;52.046;4.724;2024-03-29T14:15:49;14.90;99.10
27540;DHT22;15906;52.046;4.724;2024-03-29T14:18:14;14.70;98.00
27540;DHT22;15906;52.046;4.724;2024-03-29T14:20:40;14.80;97.10
27540;DHT22;15906;52.046;4.724;2024-03-29T14:23:05;14.80;97.10
27540;DHT22;15906;52.046;4.724;2024-03-29T14:25:32;14.70;96.30
27540;DHT22;15906;52.046;4.724;2024-03-29T14:27:57;14.70;97.30
27540;DHT22;15906;52.046;4.724;2024-03-29T14:30:25;14.70;97.70
27540;DHT22;15906;52.046;4.724;2024-03-29T14:32:51;14.60;97.50
27540;DHT22;15906;52.046;4.724;2024-03-29T14:35:18;14.70;97.70
27540;DHT22;15906;52.046;4.724;2024-03-29T14:37:44;14.80;97.40
27540;DHT22;15906;52.046;4.724;2024-03-29T14:40:11;14.80;97.30
27540;DHT22;15906;52.046;4.724;2024-03-29T14:42:41;14.80;96.60
27540;DHT22;15906;52.046;4.724;2024-03-29T14:45:07;14.80;96.20
27540;DHT22;15906;52.046;4.724;2024-03-29T14:47:33;15.00;96.30
27540;DHT22;15906;52.046;4.724;2024-03-29T14:50:00;15.00;97.10
27540;DHT22;15906;52.046;4.724;2024-03-29T14:52:26;15.00;97.50
27540;DHT22;15906;52.046;4.724;2024-03-29T14:54:51;15.00;96.70
27540;DHT22;15906;52.046;4.724;2024-03-29T14:57:17;15.00;97.60
27540;DHT22;15906;52.046;4.724;2024-03-29T14:59:50;15.00;97.80
27540;DHT22;15906;52.046;4.724;2024-03-29T15:02:15;15.00;96.70
27540;DHT22;15906;52.046;4.724;2024-03-29T15:04:41;15.00;96.90
27540;DHT22;15906;52.046;4.724;2024-03-29T15:07:07;14.90;97.40
27540;DHT22;15906;52.046;4.724;2024-03-29T15:09:33;14.90;97.50
27540;DHT22;15906;52.046;4.724;2024-03-29T15:12:03;14.90;97.40
27540;DHT22;15906;52.046;4.724;2024-03-29T15:14:29;14.90;97.10
27540;DHT22;15906;52.046;4.724;2024-03-29T15:16:55;14.90;96.80
27540;DHT22;15906;52.046;4.724;2024-03-29T15:19:21;14.80;97.00
27540;DHT22;15906;52.046;4.724;2024-03-29T15:21:47;14.80;97.30
27540;DHT22;15906;52.046;4.724;2024-03-29T15:24:14;14.70;96.90
27540;DHT22;15906;52.046;4.724;2024-03-29T15:26:40;14.70;96.10
27540;DHT22;15906;52.046;4.724;2024-03-29T15:29:05;14.70;96.80
27540;DHT22;15906;52.046;4.724;2024-03-29T15:31:37;14.70;95.70
27540;DHT22;15906;52.046;4.724;2024-03-29T15:34:04;14.80;96.10
27540;DHT22;15906;52.046;4.724;2024-03-29T15:36:30;14.80;96.20
27540;DHT22;15906;52.046;4.724;2024-03-29T15:38:56;14.80;96.80